Time;durP1;ratioP1;P1;durP2;ratioP2;P2;SDS_P1;SDS_P2;PMS_P1;PMS_P2;Temp;Humidity;BMP_temperature;BMP_pressure;BME280_temperature;BME280_humidity;BME280_pressure;Samples;Min_cycle;Max_cycle;Signal;HPM_P1;HPM_P2
2019/05/12 00:01:13;;;;;;;1.40;1.30;;;;;;;20.20;44.97;101228.42;;;;-53
2019/05/12 00:04:09;;;;;;;1.40;1.30;;;;;;;20.18;45.00;101235.76;;;;-53
2019/05/12 00:07:09;;;;;;;1.29;1.20;;;;;;;20.18;45.01;101243.92;;;;-53
2019/05/12 00:10:09;;;;;;;1.40;1.30;;;;;;;20.18;45.02;101242.97;;;;-53
2019/05/12 00:13:09;;;;;;;1.45;1.29;;;;;;;20.16;44.99;101245.88;;;;-53
2019/05/12 00:16:09;;;;;;;1.38;1.28;;;;;;;20.16;44.97;101249.17;;;;-53
2019/05/12 00:19:09;;;;;;;1.38;1.28;;;;;;;20.15;45.01;101253.36;;;;-53
2019/05/12 00:22:10;;;;;;;1.40;1.30;;;;;;;20.14;44.95;101259.63;;;;-53
2019/05/12 00:25:09;;;;;;;1.45;1.32;;;;;;;20.13;44.98;101266.45;;;;-52
2019/05/12 00:28:09;;;;;;;1.40;1.30;;;;;;;20.13;45.01;101271.64;;;;-52
2019/05/12 00:31:09;;;;;;;1.65;1.43;;;;;;;20.11;45.04;101268.91;;;;-54
2019/05/12 00:34:09;;;;;;;1.45;1.35;;;;;;;20.11;44.97;101276.30;;;;-52
2019/05/12 00:37:09;;;;;;;1.42;1.32;;;;;;;20.10;44.96;101277.08;;;;-52
2019/05/12 00:40:09;;;;;;;1.40;1.30;;;;;;;20.09;45.03;101284.23;;;;-53
2019/05/12 00:43:09;;;;;;;1.53;1.41;;;;;;;20.08;45.00;101284.80;;;;-52
2019/05/12 00:46:09;;;;;;;1.47;1.31;;;;;;;20.07;44.96;101280.55;;;;-52
2019/05/12 00:49:09;;;;;;;1.45;1.35;;;;;;;20.07;44.99;101277.63;;;;-51
2019/05/12 00:52:09;;;;;;;1.42;1.32;;;;;;;20.06;44.99;101281.59;;;;-52
2019/05/12 00:55:09;;;;;;;1.37;1.27;;;;;;;20.05;44.92;101287.97;;;;-53
2019/05/12 00:58:09;;;;;;;1.51;1.41;;;;;;;20.04;45.02;101287.58;;;;-52
2019/05/12 01:01:09;;;;;;;1.70;1.30;;;;;;;20.04;44.98;101291.67;;;;-53
2019/05/12 01:04:09;;;;;;;1.40;1.30;;;;;;;20.03;45.00;101298.44;;;;-52
2019/05/12 01:07:09;;;;;;;1.45;1.35;;;;;;;20.02;44.98;101302.57;;;;-52
2019/05/12 01:10:09;;;;;;;1.49;1.39;;;;;;;20.02;45.03;101311.95;;;;-52
2019/05/12 01:13:09;;;;;;;1.49;1.39;;;;;;;20.01;45.03;101317.03;;;;-52
2019/05/12 01:16:09;;;;;;;1.40;1.30;;;;;;;20.00;44.96;101320.45;;;;-52
2019/05/12 01:19:09;;;;;;;1.50;1.40;;;;;;;20.00;44.99;101318.95;;;;-52
2019/05/12 01:22:09;;;;;;;2.25;1.40;;;;;;;19.99;45.01;101323.30;;;;-52
2019/05/12 01:25:09;;;;;;;1.50;1.40;;;;;;;19.99;44.95;101320.73;;;;-52
2019/05/12 01:28:09;;;;;;;1.43;1.33;;;;;;;19.98;45.03;101322.82;;;;-52
2019/05/12 01:31:10;;;;;;;1.49;1.39;;;;;;;19.96;44.99;101325.04;;;;-52
2019/05/12 01:34:09;;;;;;;1.40;1.30;;;;;;;19.95;44.93;101328.06;;;;-53
2019/05/12 01:37:23;;;;;;;1.60;1.50;;;;;;;19.96;44.98;101334.61;;;;-56
2019/05/12 01:40:09;;;;;;;1.60;1.50;;;;;;;19.94;44.95;101338.91;;;;-56
2019/05/12 01:43:09;;;;;;;1.55;1.45;;;;;;;19.94;44.92;101340.98;;;;-56
2019/05/12 01:46:09;;;;;;;1.51;1.41;;;;;;;19.93;45.03;101348.07;;;;-52
2019/05/12 01:49:09;;;;;;;1.60;1.50;;;;;;;19.93;44.93;101347.19;;;;-52
2019/05/12 01:52:09;;;;;;;1.59;1.48;;;;;;;19.91;45.00;101354.49;;;;-52
2019/05/12 01:55:09;;;;;;;1.66;1.56;;;;;;;19.92;44.94;101362.89;;;;-52
2019/05/12 01:58:09;;;;;;;1.59;1.49;;;;;;;19.90;44.95;101365.50;;;;-52
2019/05/12 02:01:09;;;;;;;1.60;1.50;;;;;;;19.90;44.97;101372.61;;;;-52
2019/05/12 02:04:09;;;;;;;1.60;1.50;;;;;;;19.89;44.97;101379.02;;;;-53
2019/05/12 02:07:09;;;;;;;1.60;1.50;;;;;;;19.88;44.96;101383.09;;;;-52
2019/05/12 02:10:09;;;;;;;1.50;1.40;;;;;;;19.88;44.90;101386.00;;;;-52
2019/05/12 02:13:09;;;;;;;1.51;1.41;;;;;;;19.86;44.95;101392.38;;;;-52
2019/05/12 02:16:09;;;;;;;1.56;1.46;;;;;;;19.87;45.01;101393.82;;;;-52
2019/05/12 02:19:09;;;;;;;1.50;1.40;;;;;;;19.86;44.93;101396.61;;;;-52
2019/05/12 02:22:09;;;;;;;1.51;1.41;;;;;;;19.85;44.92;101402.25;;;;-52
2019/05/12 02:25:09;;;;;;;1.67;1.57;;;;;;;19.85;44.96;101404.50;;;;-52
2019/05/12 02:28:09;;;;;;;1.59;1.49;;;;;;;19.83;45.00;101409.13;;;;-52
2019/05/12 02:31:09;;;;;;;1.50;1.40;;;;;;;19.83;44.93;101421.87;;;;-53
2019/05/12 02:34:09;;;;;;;1.60;1.50;;;;;;;19.83;44.97;101427.61;;;;-53
2019/05/12 02:37:09;;;;;;;1.57;1.47;;;;;;;19.83;44.98;101437.51;;;;-52
2019/05/12 02:40:09;;;;;;;1.91;1.63;;;;;;;19.81;44.92;101439.84;;;;-52
2019/05/12 02:43:09;;;;;;;1.64;1.54;;;;;;;19.81;44.91;101445.77;;;;-52
2019/05/12 02:46:09;;;;;;;1.58;1.48;;;;;;;19.80;44.92;101445.20;;;;-52
2019/05/12 02:49:09;;;;;;;1.55;1.45;;;;;;;19.79;44.97;101439.63;;;;-52
2019/05/12 02:52:09;;;;;;;1.68;1.58;;;;;;;19.78;44.97;101448.39;;;;-52
2019/05/12 02:55:09;;;;;;;1.63;1.53;;;;;;;19.78;44.96;101449.89;;;;-52
2019/05/12 02:58:09;;;;;;;1.50;1.40;;;;;;;19.77;44.88;101455.55;;;;-52
2019/05/12 03:01:09;;;;;;;1.63;1.50;;;;;;;19.76;45.00;101459.06;;;;-52
2019/05/12 03:04:09;;;;;;;1.67;1.57;;;;;;;19.76;44.92;101467.22;;;;-52
2019/05/12 03:07:08;;;;;;;1.61;1.51;;;;;;;19.76;44.90;101471.30;;;;-53
2019/05/12 03:10:09;;;;;;;1.61;1.50;;;;;;;19.74;44.89;101475.48;;;;-52
2019/05/12 03:13:09;;;;;;;1.60;1.50;;;;;;;19.75;44.91;101482.67;;;;-52
2019/05/12 03:16:09;;;;;;;1.74;1.64;;;;;;;19.75;44.86;101486.76;;;;-52
2019/05/12 03:19:09;;;;;;;1.61;1.51;;;;;;;19.74;44.90;101492.23;;;;-52
2019/05/12 03:22:09;;;;;;;1.66;1.56;;;;;;;19.72;44.89;101501.09;;;;-52
2019/05/12 03:25:09;;;;;;;1.67;1.57;;;;;;;19.72;44.88;101500.88;;;;-52
2019/05/12 03:28:09;;;;;;;1.60;1.50;;;;;;;19.71;44.86;101506.59;;;;-52
2019/05/12 03:31:09;;;;;;;1.70;1.60;;;;;;;19.70;44.89;101513.44;;;;-52
2019/05/12 03:34:09;;;;;;;1.67;1.57;;;;;;;19.69;44.92;101520.36;;;;-52
2019/05/12 03:37:09;;;;;;;1.80;1.70;;;;;;;19.69;44.85;101525.39;;;;-52
2019/05/12 03:40:09;;;;;;;1.61;1.51;;;;;;;19.69;44.80;101528.02;;;;-52
2019/05/12 03:43:09;;;;;;;1.73;1.63;;;;;;;19.68;44.83;101538.35;;;;-52
2019/05/12 03:46:09;;;;;;;1.83;1.70;;;;;;;19.67;44.89;101543.09;;;;-52
2019/05/12 03:49:09;;;;;;;1.70;1.60;;;;;;;19.67;44.87;101545.33;;;;-55
2019/05/12 03:52:09;;;;;;;2.27;1.73;;;;;;;19.67;44.79;101551.47;;;;-56
2019/05/12 03:55:09;;;;;;;1.70;1.60;;;;;;;19.66;44.89;101557.05;;;;-57
2019/05/12 03:58:09;;;;;;;1.79;1.69;;;;;;;19.66;44.86;101559.73;;;;-52
2019/05/12 04:01:09;;;;;;;1.71;1.61;;;;;;;19.67;44.82;101565.66;;;;-52
2019/05/12 04:04:08;;;;;;;1.79;1.69;;;;;;;19.67;44.85;101566.95;;;;-52
2019/05/12 04:07:09;;;;;;;1.80;1.70;;;;;;;19.66;44.80;101571.97;;;;-52
2019/05/12 04:10:09;;;;;;;1.92;1.82;;;;;;;19.68;44.89;101578.80;;;;-52
2019/05/12 04:13:09;;;;;;;1.70;1.60;;;;;;;19.66;44.81;101588.73;;;;-53
2019/05/12 04:16:09;;;;;;;1.71;1.61;;;;;;;19.66;44.81;101591.97;;;;-52
2019/05/12 04:19:09;;;;;;;1.69;1.59;;;;;;;19.67;44.83;101602.20;;;;-52
2019/05/12 04:22:09;;;;;;;1.77;1.67;;;;;;;19.67;44.83;101609.52;;;;-53
2019/05/12 04:25:09;;;;;;;1.74;1.63;;;;;;;19.66;44.74;101607.45;;;;-53
2019/05/12 04:28:09;;;;;;;1.90;1.74;;;;;;;19.67;44.75;101614.22;;;;-53
2019/05/12 04:31:09;;;;;;;1.76;1.66;;;;;;;19.66;44.79;101621.78;;;;-53
2019/05/12 04:34:09;;;;;;;1.72;1.60;;;;;;;19.65;44.75;101630.90;;;;-52
2019/05/12 04:37:09;;;;;;;1.79;1.69;;;;;;;19.65;44.81;101636.81;;;;-53
2019/05/12 04:40:09;;;;;;;1.99;1.65;;;;;;;19.64;44.71;101640.89;;;;-53
2019/05/12 04:43:09;;;;;;;1.78;1.68;;;;;;;19.64;44.73;101644.95;;;;-53
2019/05/12 04:46:09;;;;;;;1.66;1.56;;;;;;;19.63;44.80;101645.91;;;;-58
2019/05/12 04:49:09;;;;;;;1.70;1.60;;;;;;;19.63;44.72;101646.74;;;;-58
2019/05/12 04:52:09;;;;;;;1.76;1.66;;;;;;;19.62;44.71;101651.72;;;;-58
2019/05/12 04:55:09;;;;;;;1.72;1.61;;;;;;;19.63;44.73;101659.64;;;;-58
2019/05/12 04:58:09;;;;;;;1.80;1.70;;;;;;;19.62;44.73;101666.28;;;;-58
2019/05/12 05:01:09;;;;;;;1.76;1.66;;;;;;;19.61;44.75;101668.14;;;;-58
2019/05/12 05:04:09;;;;;;;1.80;1.70;;;;;;;19.61;44.66;101671.16;;;;-58
2019/05/12 05:07:09;;;;;;;1.70;1.60;;;;;;;19.61;44.77;101671.09;;;;-58
2019/05/12 05:10:09;;;;;;;1.75;1.65;;;;;;;19.61;44.70;101675.28;;;;-58
2019/05/12 05:13:09;;;;;;;1.70;1.60;;;;;;;19.61;44.67;101681.30;;;;-58
2019/05/12 05:16:09;;;;;;;1.71;1.61;;;;;;;19.60;44.73;101685.72;;;;-57
2019/05/12 05:19:09;;;;;;;1.93;1.73;;;;;;;19.59;44.75;101688.33;;;;-58
2019/05/12 05:22:09;;;;;;;1.71;1.61;;;;;;;19.59;44.70;101695.55;;;;-58
2019/05/12 05:25:09;;;;;;;1.77;1.63;;;;;;;19.59;44.79;101701.56;;;;-58
2019/05/12 05:28:09;;;;;;;1.60;1.50;;;;;;;19.59;44.69;101710.00;;;;-58
2019/05/12 05:31:09;;;;;;;1.60;1.50;;;;;;;19.59;44.74;101716.38;;;;-58
2019/05/12 05:34:09;;;;;;;1.70;1.60;;;;;;;19.59;44.68;101724.92;;;;-58
2019/05/12 05:37:09;;;;;;;1.72;1.62;;;;;;;19.58;44.61;101728.72;;;;-58
2019/05/12 05:40:09;;;;;;;1.74;1.64;;;;;;;19.58;44.72;101732.84;;;;-58
2019/05/12 05:43:09;;;;;;;1.60;1.50;;;;;;;19.57;44.65;101734.17;;;;-58
2019/05/12 05:46:09;;;;;;;1.65;1.53;;;;;;;19.56;44.59;101737.30;;;;-58
2019/05/12 05:49:09;;;;;;;1.75;1.58;;;;;;;19.56;44.55;101732.72;;;;-58
2019/05/12 05:52:09;;;;;;;1.67;1.57;;;;;;;19.55;44.65;101726.96;;;;-58
2019/05/12 05:55:09;;;;;;;1.60;1.50;;;;;;;19.56;44.54;101733.05;;;;-58
2019/05/12 05:58:09;;;;;;;1.69;1.50;;;;;;;19.55;44.54;101736.68;;;;-58
2019/05/12 06:01:09;;;;;;;1.70;1.60;;;;;;;19.55;44.60;101739.84;;;;-58
2019/05/12 06:04:09;;;;;;;1.63;1.53;;;;;;;19.55;44.59;101745.55;;;;-58
2019/05/12 06:07:09;;;;;;;1.79;1.50;;;;;;;19.55;44.51;101744.59;;;;-52
2019/05/12 06:10:09;;;;;;;1.63;1.53;;;;;;;19.55;44.63;101745.73;;;;-52
2019/05/12 06:13:09;;;;;;;1.81;1.70;;;;;;;19.55;44.52;101746.22;;;;-52
2019/05/12 06:16:09;;;;;;;1.80;1.51;;;;;;;19.55;44.48;101752.75;;;;-52
2019/05/12 06:19:08;;;;;;;1.69;1.59;;;;;;;19.54;44.49;101754.72;;;;-52
2019/05/12 06:22:09;;;;;;;1.64;1.54;;;;;;;19.53;44.42;101756.49;;;;-53
2019/05/12 06:25:09;;;;;;;1.71;1.58;;;;;;;19.53;44.44;101766.38;;;;-52
2019/05/12 06:28:09;;;;;;;1.79;1.69;;;;;;;19.54;44.47;101774.80;;;;-52
2019/05/12 06:31:09;;;;;;;1.67;1.57;;;;;;;19.53;44.46;101776.16;;;;-52
2019/05/12 06:34:09;;;;;;;1.93;1.70;;;;;;;19.53;44.46;101783.36;;;;-52
2019/05/12 06:37:09;;;;;;;1.64;1.54;;;;;;;19.52;44.46;101781.63;;;;-52
2019/05/12 06:40:09;;;;;;;1.91;1.61;;;;;;;19.52;44.45;101789.94;;;;-55
2019/05/12 06:43:09;;;;;;;1.96;1.75;;;;;;;19.52;44.42;101802.49;;;;-56
2019/05/12 06:46:09;;;;;;;1.83;1.60;;;;;;;19.51;44.32;101800.77;;;;-56
2019/05/12 06:49:09;;;;;;;2.11;1.60;;;;;;;19.52;44.29;101807.75;;;;-55
2019/05/12 06:52:09;;;;;;;1.91;1.71;;;;;;;19.51;44.28;101810.15;;;;-56
2019/05/12 06:55:09;;;;;;;1.89;1.67;;;;;;;19.51;44.28;101812.16;;;;-57
2019/05/12 06:58:09;;;;;;;1.90;1.68;;;;;;;19.51;44.22;101814.44;;;;-52
2019/05/12 07:01:09;;;;;;;1.60;1.50;;;;;;;19.50;44.30;101816.20;;;;-52
2019/05/12 07:04:09;;;;;;;2.43;1.69;;;;;;;19.50;44.30;101818.89;;;;-52
2019/05/12 07:07:09;;;;;;;1.61;1.51;;;;;;;19.50;44.24;101817.22;;;;-52
2019/05/12 07:10:09;;;;;;;2.02;1.74;;;;;;;19.50;44.22;101829.73;;;;-52
2019/05/12 07:13:08;;;;;;;1.85;1.60;;;;;;;19.49;44.23;101831.23;;;;-52
2019/05/12 07:16:16;;;;;;;1.65;1.55;;;;;;;19.49;44.22;101835.48;;;;-52
2019/05/12 07:19:09;;;;;;;1.81;1.60;;;;;;;19.49;44.16;101839.22;;;;-52
2019/05/12 07:22:09;;;;;;;2.09;1.68;;;;;;;19.49;44.19;101841.11;;;;-52
2019/05/12 07:25:09;;;;;;;1.89;1.69;;;;;;;19.49;44.16;101846.36;;;;-52
2019/05/12 07:28:09;;;;;;;2.25;1.65;;;;;;;19.49;44.14;101844.46;;;;-52
2019/05/12 07:31:09;;;;;;;1.60;1.50;;;;;;;19.48;44.16;101844.90;;;;-52
2019/05/12 07:34:09;;;;;;;1.81;1.64;;;;;;;19.49;44.07;101845.08;;;;-52
2019/05/12 07:37:09;;;;;;;2.09;1.69;;;;;;;19.47;44.14;101850.94;;;;-52
2019/05/12 07:40:09;;;;;;;1.70;1.60;;;;;;;19.48;44.07;101856.20;;;;-52
2019/05/12 07:43:09;;;;;;;1.73;1.59;;;;;;;19.48;44.16;101858.42;;;;-52
2019/05/12 07:46:09;;;;;;;1.93;1.73;;;;;;;19.48;44.07;101863.28;;;;-52
2019/05/12 07:49:09;;;;;;;2.77;1.73;;;;;;;19.47;44.06;101867.63;;;;-52
2019/05/12 07:52:09;;;;;;;1.80;1.70;;;;;;;19.47;44.04;101869.41;;;;-52
2019/05/12 07:55:09;;;;;;;1.95;1.75;;;;;;;19.48;43.87;101877.86;;;;-51
2019/05/12 07:58:09;;;;;;;1.87;1.72;;;;;;;19.49;44.04;101879.22;;;;-51
2019/05/12 08:01:09;;;;;;;1.92;1.69;;;;;;;19.51;44.01;101872.53;;;;-51
2019/05/12 08:04:09;;;;;;;1.83;1.60;;;;;;;19.51;44.09;101874.25;;;;-51
2019/05/12 08:07:09;;;;;;;2.13;1.65;;;;;;;19.54;44.11;101886.82;;;;-51
2019/05/12 08:10:09;;;;;;;3.00;2.25;;;;;;;19.41;42.32;101891.95;;;;-53
2019/05/12 08:13:09;;;;;;;4.60;2.52;;;;;;;19.22;41.52;101894.84;;;;-50
2019/05/12 08:16:09;;;;;;;5.19;2.51;;;;;;;19.33;42.91;101893.80;;;;-50
2019/05/12 08:19:09;;;;;;;4.51;2.15;;;;;;;19.39;43.15;101899.53;;;;-51
2019/05/12 08:22:09;;;;;;;5.91;2.14;;;;;;;19.43;43.35;101909.23;;;;-52
2019/05/12 08:25:09;;;;;;;3.69;2.13;;;;;;;19.45;43.37;101909.59;;;;-52
2019/05/12 08:28:09;;;;;;;3.93;2.03;;;;;;;19.47;43.39;101909.52;;;;-51
2019/05/12 08:31:09;;;;;;;6.79;2.09;;;;;;;19.50;43.47;101911.17;;;;-51
2019/05/12 08:34:09;;;;;;;3.34;1.93;;;;;;;19.51;43.53;101917.10;;;;-51
2019/05/12 08:37:09;;;;;;;2.49;1.82;;;;;;;19.54;43.51;101922.00;;;;-49
2019/05/12 08:40:09;;;;;;;7.84;2.17;;;;;;;19.58;43.98;101925.95;;;;-49
2019/05/12 08:43:09;;;;;;;5.99;2.09;;;;;;;19.60;44.05;101928.77;;;;-50
2019/05/12 08:46:09;;;;;;;5.45;2.04;;;;;;;19.65;44.49;101940.91;;;;-51
2019/05/12 08:49:09;;;;;;;6.48;2.33;;;;;;;19.68;44.37;101938.49;;;;-57
2019/05/12 08:52:09;;;;;;;6.73;2.05;;;;;;;19.70;44.66;101942.48;;;;-58
2019/05/12 08:55:09;;;;;;;7.47;2.03;;;;;;;19.71;44.70;101945.73;;;;-56
2019/05/12 08:58:09;;;;;;;3.23;1.85;;;;;;;19.74;44.45;101954.48;;;;-59
2019/05/12 09:01:09;;;;;;;5.77;2.09;;;;;;;19.74;44.69;101963.36;;;;-57
2019/05/12 09:04:09;;;;;;;5.23;2.12;;;;;;;19.73;44.43;101959.85;;;;-59
2019/05/12 09:07:09;;;;;;;3.27;1.92;;;;;;;19.73;44.58;101961.34;;;;-52
2019/05/12 09:10:09;;;;;;;3.67;2.18;;;;;;;19.74;44.44;101966.29;;;;-52
2019/05/12 09:13:09;;;;;;;4.89;2.00;;;;;;;19.72;44.39;101972.39;;;;-51
2019/05/12 09:16:09;;;;;;;7.95;2.18;;;;;;;19.70;44.34;101983.20;;;;-52
2019/05/12 09:19:09;;;;;;;6.97;2.13;;;;;;;19.67;44.31;101988.93;;;;-52
2019/05/12 09:22:09;;;;;;;4.83;1.99;;;;;;;19.65;44.30;101986.55;;;;-51
2019/05/12 09:25:09;;;;;;;3.00;1.91;;;;;;;19.64;44.23;101992.73;;;;-50
2019/05/12 09:28:08;;;;;;;4.87;1.99;;;;;;;19.62;44.11;101992.05;;;;-51
2019/05/12 09:31:09;;;;;;;4.10;1.91;;;;;;;19.62;44.24;101995.63;;;;-49
2019/05/12 09:34:09;;;;;;;3.17;1.90;;;;;;;19.64;44.25;101998.89;;;;-51
2019/05/12 09:37:09;;;;;;;2.59;1.87;;;;;;;19.64;44.32;102000.96;;;;-48
2019/05/12 09:40:09;;;;;;;3.61;2.00;;;;;;;19.65;44.31;101996.56;;;;-50
2019/05/12 09:43:09;;;;;;;3.81;1.96;;;;;;;19.68;44.34;102001.73;;;;-52
2019/05/12 09:46:09;;;;;;;3.87;2.04;;;;;;;19.68;44.36;101992.69;;;;-52
2019/05/12 09:49:09;;;;;;;4.47;1.87;;;;;;;19.68;44.32;102003.92;;;;-51
2019/05/12 09:52:09;;;;;;;2.69;2.03;;;;;;;19.69;44.30;102010.08;;;;-54
2019/05/12 09:55:09;;;;;;;2.86;2.00;;;;;;;19.69;44.40;102003.09;;;;-57
2019/05/12 09:58:09;;;;;;;3.22;2.08;;;;;;;19.71;44.34;102000.05;;;;-57
2019/05/12 10:01:09;;;;;;;2.66;2.02;;;;;;;19.71;44.40;102002.89;;;;-59
2019/05/12 10:04:09;;;;;;;2.77;1.93;;;;;;;19.73;44.38;102014.59;;;;-52
2019/05/12 10:07:09;;;;;;;2.88;1.81;;;;;;;19.74;44.34;102022.78;;;;-59
2019/05/12 10:14:04;;;;;;;2.57;1.89;;;;;;;19.78;44.28;102031.42;;;;-53
2019/05/12 10:17:03;;;;;;;2.97;1.83;;;;;;;19.78;44.28;102026.91;;;;-54
2019/05/12 10:20:03;;;;;;;2.07;1.87;;;;;;;19.80;44.26;102030.46;;;;-54
2019/05/12 10:23:03;;;;;;;2.73;2.11;;;;;;;19.79;44.28;102034.08;;;;-55
2019/05/12 10:26:03;;;;;;;3.13;2.07;;;;;;;19.81;44.34;102037.41;;;;-51
2019/05/12 10:29:03;;;;;;;4.64;1.84;;;;;;;19.81;44.27;102041.59;;;;-56
2019/05/12 10:32:03;;;;;;;4.95;1.91;;;;;;;19.82;44.21;102038.08;;;;-57
2019/05/12 10:39:27;;;;;;;2.47;1.80;;;;;;;19.86;44.22;102047.11;;;;-55
2019/05/12 10:42:27;;;;;;;3.36;1.84;;;;;;;19.84;44.22;102047.81;;;;-57
2019/05/12 10:45:29;;;;;;;3.57;1.95;;;;;;;19.85;44.25;102038.91;;;;-57
2019/05/12 10:48:27;;;;;;;3.60;1.79;;;;;;;19.86;44.26;102042.10;;;;-51
2019/05/12 10:51:27;;;;;;;3.73;1.88;;;;;;;19.86;44.25;102043.05;;;;-51
2019/05/12 10:54:27;;;;;;;3.41;1.89;;;;;;;19.88;44.18;102039.45;;;;-58
2019/05/12 10:57:27;;;;;;;2.15;1.73;;;;;;;19.87;44.20;102049.10;;;;-58
2019/05/12 11:00:27;;;;;;;3.93;1.91;;;;;;;19.85;44.31;102042.69;;;;-53
2019/05/12 11:03:27;;;;;;;3.52;1.79;;;;;;;19.83;44.07;102047.19;;;;-54
2019/05/12 11:06:27;;;;;;;6.13;1.86;;;;;;;19.81;44.09;102042.75;;;;-54
2019/05/12 11:09:27;;;;;;;3.85;1.80;;;;;;;19.79;44.00;102038.70;;;;-54
2019/05/12 11:12:27;;;;;;;3.43;1.89;;;;;;;19.77;44.03;102036.13;;;;-53
2019/05/12 11:15:27;;;;;;;2.92;1.90;;;;;;;19.76;44.03;102031.12;;;;-53
2019/05/12 11:18:27;;;;;;;3.89;1.74;;;;;;;19.73;43.97;102035.77;;;;-53
2019/05/12 11:21:27;;;;;;;3.01;1.90;;;;;;;19.73;44.01;102034.71;;;;-53
2019/05/12 11:24:27;;;;;;;2.55;1.80;;;;;;;19.72;43.98;102040.73;;;;-53
2019/05/12 11:27:27;;;;;;;2.76;1.79;;;;;;;19.72;43.95;102045.70;;;;-53
2019/05/12 11:30:27;;;;;;;3.39;1.83;;;;;;;19.72;43.90;102041.19;;;;-53
2019/05/12 11:33:27;;;;;;;2.01;1.70;;;;;;;19.71;43.95;102038.66;;;;-53
2019/05/12 11:36:27;;;;;;;1.81;1.66;;;;;;;19.70;43.92;102046.30;;;;-53
2019/05/12 11:39:27;;;;;;;4.21;1.75;;;;;;;19.68;43.94;102046.33;;;;-53
2019/05/12 11:42:27;;;;;;;2.45;1.70;;;;;;;19.69;43.88;102039.41;;;;-53
2019/05/12 11:45:27;;;;;;;3.23;1.71;;;;;;;19.69;43.82;102042.31;;;;-53
2019/05/12 11:48:27;;;;;;;1.89;1.73;;;;;;;19.69;43.81;102046.67;;;;-53
2019/05/12 11:51:27;;;;;;;2.22;1.75;;;;;;;19.68;43.84;102042.08;;;;-53
2019/05/12 11:54:27;;;;;;;2.52;1.73;;;;;;;19.67;43.80;102048.75;;;;-52
2019/05/12 11:57:27;;;;;;;1.68;1.58;;;;;;;19.66;43.81;102052.11;;;;-53
2019/05/12 12:00:27;;;;;;;2.21;1.58;;;;;;;19.64;43.76;102047.22;;;;-53
2019/05/12 12:03:27;;;;;;;3.59;1.67;;;;;;;19.64;43.75;102047.45;;;;-53
2019/05/12 12:06:27;;;;;;;1.93;1.55;;;;;;;19.66;43.76;102051.89;;;;-53
2019/05/12 12:09:27;;;;;;;2.19;1.81;;;;;;;19.65;43.73;102047.45;;;;-53
2019/05/12 12:12:27;;;;;;;1.80;1.62;;;;;;;19.65;43.80;102050.80;;;;-53
2019/05/12 12:15:27;;;;;;;1.75;1.65;;;;;;;19.64;43.75;102044.54;;;;-53
2019/05/12 12:18:27;;;;;;;2.94;1.50;;;;;;;19.65;43.71;102045.94;;;;-53
2019/05/12 12:21:27;;;;;;;1.67;1.57;;;;;;;19.64;43.70;102050.07;;;;-53
2019/05/12 12:24:27;;;;;;;2.99;1.66;;;;;;;19.62;43.75;102056.36;;;;-53
2019/05/12 12:27:27;;;;;;;1.97;1.74;;;;;;;19.63;43.71;102051.12;;;;-53
2019/05/12 12:30:27;;;;;;;2.77;1.77;;;;;;;19.62;43.72;102039.59;;;;-53
2019/05/12 12:33:27;;;;;;;1.71;1.61;;;;;;;19.61;43.72;102050.52;;;;-53
2019/05/12 12:36:27;;;;;;;1.99;1.79;;;;;;;19.61;43.71;102064.45;;;;-54
2019/05/12 12:39:27;;;;;;;3.07;1.81;;;;;;;19.60;43.75;102067.20;;;;-53
2019/05/12 12:42:27;;;;;;;2.35;2.00;;;;;;;19.59;43.70;102062.41;;;;-53
2019/05/12 12:46:12;;;;;;;2.70;2.01;;;;;;;19.58;43.72;102057.13;;;;-53
2019/05/12 12:48:27;;;;;;;2.35;2.01;;;;;;;19.60;43.60;102053.38;;;;-53
2019/05/12 12:51:27;;;;;;;2.55;2.07;;;;;;;19.59;43.64;102052.23;;;;-53
2019/05/12 12:54:27;;;;;;;2.65;2.05;;;;;;;19.61;43.68;102054.00;;;;-57
2019/05/12 12:57:27;;;;;;;4.19;1.97;;;;;;;19.60;43.65;102045.25;;;;-55
2019/05/12 13:00:27;;;;;;;3.33;2.00;;;;;;;19.62;43.67;102032.39;;;;-55
2019/05/12 13:03:27;;;;;;;2.57;1.93;;;;;;;19.61;43.69;102052.10;;;;-55
2019/05/12 13:06:27;;;;;;;2.55;1.85;;;;;;;19.63;43.65;102040.34;;;;-55
2019/05/12 13:09:27;;;;;;;2.96;1.99;;;;;;;19.63;43.73;102046.03;;;;-54
2019/05/12 13:12:27;;;;;;;3.53;1.97;;;;;;;19.64;43.62;102046.03;;;;-58
2019/05/12 13:15:27;;;;;;;2.48;1.94;;;;;;;19.64;43.61;102044.04;;;;-58
2019/05/12 13:18:27;;;;;;;2.73;1.83;;;;;;;19.62;43.58;102050.37;;;;-59
2019/05/12 13:21:27;;;;;;;2.33;1.78;;;;;;;19.62;43.61;102051.00;;;;-59
2019/05/12 13:24:27;;;;;;;2.95;1.90;;;;;;;19.62;43.47;102038.48;;;;-59
2019/05/12 13:27:27;;;;;;;2.00;1.80;;;;;;;19.61;43.49;102043.64;;;;-58
2019/05/12 13:30:27;;;;;;;3.30;1.97;;;;;;;19.61;43.49;102043.27;;;;-58
2019/05/12 13:33:27;;;;;;;2.31;1.74;;;;;;;19.61;43.45;102049.92;;;;-58
2019/05/12 13:36:27;;;;;;;2.18;1.83;;;;;;;19.60;43.45;102055.77;;;;-58
2019/05/12 13:39:27;;;;;;;3.60;1.80;;;;;;;19.60;43.44;102051.95;;;;-55
2019/05/12 13:42:27;;;;;;;2.24;1.95;;;;;;;19.60;43.46;102054.13;;;;-55
2019/05/12 13:45:27;;;;;;;3.11;1.80;;;;;;;19.59;43.41;102054.19;;;;-54
2019/05/12 13:48:27;;;;;;;2.10;1.81;;;;;;;19.58;43.46;102050.49;;;;-54
2019/05/12 13:51:26;;;;;;;2.83;1.79;;;;;;;19.58;43.40;102042.95;;;;-54
2019/05/12 13:54:27;;;;;;;2.95;1.79;;;;;;;19.58;43.36;102046.75;;;;-54
2019/05/12 13:57:27;;;;;;;1.94;1.69;;;;;;;19.58;43.33;102046.39;;;;-55
2019/05/12 14:00:27;;;;;;;3.06;1.81;;;;;;;19.59;43.40;102046.63;;;;-54
2019/05/12 14:03:27;;;;;;;2.93;1.79;;;;;;;19.58;43.42;102038.08;;;;-54
2019/05/12 14:06:28;;;;;;;2.65;1.76;;;;;;;19.58;43.42;102032.48;;;;-54
2019/05/12 14:09:26;;;;;;;2.14;1.69;;;;;;;19.58;43.43;102039.86;;;;-54
2019/05/12 14:12:27;;;;;;;2.48;1.70;;;;;;;19.57;43.28;102041.69;;;;-54
2019/05/12 14:15:26;;;;;;;1.92;1.73;;;;;;;19.56;43.33;102041.90;;;;-54
2019/05/12 14:18:27;;;;;;;1.71;1.61;;;;;;;19.56;43.37;102040.63;;;;-54
2019/05/12 14:21:27;;;;;;;3.03;1.77;;;;;;;19.57;43.31;102030.91;;;;-55
2019/05/12 14:24:27;;;;;;;2.31;1.77;;;;;;;19.57;43.31;102029.40;;;;-55
2019/05/12 14:27:27;;;;;;;2.13;1.72;;;;;;;19.56;43.38;102031.00;;;;-55
2019/05/12 14:30:27;;;;;;;2.25;1.72;;;;;;;19.55;43.33;102034.45;;;;-56
2019/05/12 14:33:27;;;;;;;1.98;1.77;;;;;;;19.56;43.24;102030.73;;;;-56
2019/05/12 14:36:27;;;;;;;2.03;1.79;;;;;;;19.54;43.26;102031.44;;;;-56
2019/05/12 14:39:27;;;;;;;1.86;1.71;;;;;;;19.54;43.31;102023.55;;;;-56
2019/05/12 14:42:27;;;;;;;2.22;1.70;;;;;;;19.53;43.25;102015.44;;;;-55
2019/05/12 14:45:27;;;;;;;2.00;1.67;;;;;;;19.53;43.29;102026.45;;;;-55
2019/05/12 14:48:27;;;;;;;2.09;1.71;;;;;;;19.51;43.29;102021.30;;;;-56
2019/05/12 14:51:26;;;;;;;1.77;1.67;;;;;;;19.53;43.27;102027.34;;;;-55
2019/05/12 14:54:27;;;;;;;1.69;1.58;;;;;;;19.54;43.24;102026.91;;;;-54
2019/05/12 14:57:27;;;;;;;1.92;1.69;;;;;;;19.53;43.15;102030.81;;;;-54
2019/05/12 15:00:27;;;;;;;1.77;1.65;;;;;;;19.53;43.13;102032.98;;;;-55
2019/05/12 15:03:27;;;;;;;2.09;1.80;;;;;;;19.52;43.20;102026.28;;;;-56
2019/05/12 15:06:27;;;;;;;2.19;1.69;;;;;;;19.52;43.21;102030.24;;;;-55
2019/05/12 15:09:27;;;;;;;1.79;1.68;;;;;;;19.52;43.15;102030.30;;;;-55
2019/05/12 15:12:27;;;;;;;2.19;1.70;;;;;;;19.53;43.16;102034.17;;;;-55
2019/05/12 15:15:27;;;;;;;1.97;1.67;;;;;;;19.52;43.29;102035.11;;;;-47
2019/05/12 15:18:27;;;;;;;2.15;1.76;;;;;;;19.54;43.50;102031.78;;;;-46
2019/05/12 15:21:27;;;;;;;1.87;1.63;;;;;;;19.57;43.77;102031.47;;;;-51
2019/05/12 15:24:27;;;;;;;1.95;1.69;;;;;;;19.61;43.97;102033.88;;;;-52
2019/05/12 15:27:27;;;;;;;3.39;1.57;;;;;;;19.63;43.90;102035.87;;;;-50
2019/05/12 15:30:26;;;;;;;2.09;1.60;;;;;;;19.65;43.86;102035.38;;;;-49
2019/05/12 15:33:27;;;;;;;3.53;1.69;;;;;;;19.66;43.88;102036.63;;;;-50
2019/05/12 15:39:13;;;;;;;2.01;1.74;;;;;;;19.69;43.96;102039.63;;;;-52
2019/05/12 15:42:13;;;;;;;2.33;1.69;;;;;;;19.72;44.00;102043.70;;;;-48
2019/05/12 15:45:13;;;;;;;2.11;1.79;;;;;;;19.74;43.96;102042.05;;;;-47
2019/05/12 15:48:13;;;;;;;2.84;1.60;;;;;;;19.76;43.88;102047.06;;;;-47
2019/05/12 15:51:13;;;;;;;1.81;1.51;;;;;;;19.79;43.86;102048.92;;;;-47
2019/05/12 15:54:13;;;;;;;4.62;1.61;;;;;;;19.79;43.97;102049.93;;;;-58
2019/05/12 15:57:13;;;;;;;1.83;1.65;;;;;;;19.79;43.93;102049.31;;;;-49
2019/05/12 16:00:13;;;;;;;1.87;1.61;;;;;;;19.82;43.85;102049.02;;;;-50
2019/05/12 16:03:13;;;;;;;1.93;1.60;;;;;;;19.83;43.91;102049.72;;;;-58
2019/05/12 16:06:13;;;;;;;2.52;1.70;;;;;;;19.83;43.86;102046.20;;;;-58
2019/05/12 16:09:13;;;;;;;3.30;1.69;;;;;;;19.84;43.86;102047.16;;;;-53
2019/05/12 16:12:13;;;;;;;1.92;1.67;;;;;;;19.85;43.82;102048.68;;;;-58
2019/05/12 16:15:13;;;;;;;2.47;1.61;;;;;;;19.87;43.80;102058.71;;;;-61
2019/05/12 16:18:13;;;;;;;2.23;1.75;;;;;;;19.89;43.74;102061.64;;;;-57
2019/05/12 16:21:13;;;;;;;1.60;1.50;;;;;;;19.87;43.75;102059.88;;;;-56
2019/05/12 16:24:13;;;;;;;3.09;1.60;;;;;;;19.89;43.74;102061.31;;;;-52
2019/05/12 16:27:13;;;;;;;2.05;1.59;;;;;;;19.87;43.80;102063.41;;;;-58
2019/05/12 16:30:13;;;;;;;2.27;1.74;;;;;;;19.88;43.79;102066.44;;;;-53
2019/05/12 16:33:13;;;;;;;1.83;1.61;;;;;;;19.86;43.82;102066.08;;;;-57
2019/05/12 16:41:16;;;;;;;1.98;1.60;;;;;;;19.90;43.84;102069.98;;;;-58
2019/05/12 16:44:16;;;;;;;1.68;1.56;;;;;;;19.90;43.79;102070.27;;;;-51
2019/05/12 16:47:16;;;;;;;1.71;1.40;;;;;;;19.89;43.69;102064.22;;;;-56
2019/05/12 16:54:29;;;;;;;1.92;1.48;;;;;;;19.91;43.73;102067.24;;;;-55
2019/05/12 16:57:29;;;;;;;2.52;1.53;;;;;;;19.90;43.76;102067.19;;;;-56
2019/05/12 17:00:29;;;;;;;2.03;1.60;;;;;;;19.91;43.88;102070.11;;;;-61
2019/05/12 17:03:29;;;;;;;1.81;1.47;;;;;;;19.87;43.82;102066.48;;;;-57